Time;durP1;ratioP1;P1;durP2;ratioP2;P2;SDS_P1;SDS_P2;PMS_P1;PMS_P2;Temp;Humidity;BMP_temperature;BMP_pressure;BME280_temperature;BME280_humidity;BME280_pressure;Samples;Min_cycle;Max_cycle;Signal;HPM_P1;HPM_P2
2021/06/15 00:02:10;;;;;;;13.23;6.45;;;;;;;;;;6283085;22;20170;-87
2021/06/15 00:05:16;;;;;;;13.55;6.68;;;;;;;;;;6283639;22;20170;-87
2021/06/15 00:08:22;;;;;;;10.38;6.20;;;;;;;;;;6285316;22;20170;-87
2021/06/15 00:11:29;;;;;;;17.73;6.68;;;;;;;;;;6285853;22;20497;-87
2021/06/15 00:14:34;;;;;;;15.68;6.40;;;;;;;;;;6286690;22;20284;-87
2021/06/15 00:17:39;;;;;;;16.60;6.90;;;;;;;;;;6285105;22;20173;-87
2021/06/15 00:20:44;;;;;;;14.88;6.40;;;;;;;;;;6285235;22;20204;-88
2021/06/15 00:23:49;;;;;;;14.63;6.70;;;;;;;;;;6284451;22;20216;-88
2021/06/15 00:26:56;;;;;;;14.68;6.65;;;;;;;;;;6284614;22;20625;-87
2021/06/15 00:30:01;;;;;;;15.05;7.00;;;;;;;;;;6285310;22;20166;-85
2021/06/15 00:33:06;;;;;;;11.23;6.47;;;;;;;;;;6288759;22;20246;-87
2021/06/15 00:36:11;;;;;;;16.10;6.80;;;;;;;;;;6285896;22;20166;-88
2021/06/15 00:39:15;;;;;;;11.45;6.53;;;;;;;;;;6284766;22;20170;-88
2021/06/15 00:42:23;;;;;;;12.52;6.78;;;;;;;;;;6285532;22;20170;-86
2021/06/15 00:45:32;;;;;;;12.98;6.18;;;;;;;;;;6285435;22;20212;-89
2021/06/15 00:48:39;;;;;;;14.15;6.47;;;;;;;;;;6285157;22;20170;-88
2021/06/15 00:51:47;;;;;;;16.15;6.80;;;;;;;;;;6286143;22;20170;-88
2021/06/15 00:54:53;;;;;;;13.18;6.65;;;;;;;;;;6284962;22;20194;-86
2021/06/15 00:57:59;;;;;;;12.05;6.40;;;;;;;;;;6284170;22;20177;-87
2021/06/15 01:01:07;;;;;;;15.07;6.40;;;;;;;;;;6283333;22;20170;-87
2021/06/15 01:04:13;;;;;;;12.10;6.18;;;;;;;;;;6285311;22;20162;-88
2021/06/15 01:07:20;;;;;;;16.58;6.97;;;;;;;;;;6285806;22;20185;-85
2021/06/15 01:10:34;;;;;;;13.52;6.57;;;;;;;;;;6284607;22;20174;-86
2021/06/15 01:13:58;;;;;;;11.57;6.45;;;;;;;;;;6284529;22;20245;-88
2021/06/15 01:17:07;;;;;;;15.95;6.47;;;;;;;;;;6284135;22;20184;-86
2021/06/15 01:20:16;;;;;;;12.95;6.07;;;;;;;;;;6283611;22;20169;-87
2021/06/15 01:23:53;;;;;;;12.52;6.25;;;;;;;;;;6282954;22;20616;-87
2021/06/15 01:27:15;;;;;;;19.90;6.32;;;;;;;;;;6284694;22;20220;-88
2021/06/15 01:30:28;;;;;;;10.73;6.22;;;;;;;;;;6300765;22;20220;-87
2021/06/15 01:33:35;;;;;;;14.52;7.07;;;;;;;;;;6282705;22;20643;-88
2021/06/15 01:36:43;;;;;;;12.25;7.25;;;;;;;;;;6285849;22;20169;-86
2021/06/15 01:39:55;;;;;;;15.68;6.93;;;;;;;;;;6283594;22;20169;-87
2021/06/15 01:43:05;;;;;;;12.55;7.07;;;;;;;;;;6283880;22;20217;-88
2021/06/15 01:46:14;;;;;;;12.57;6.45;;;;;;;;;;6282935;22;20205;-89
2021/06/15 01:49:21;;;;;;;14.00;7.32;;;;;;;;;;6283367;22;20219;-88
2021/06/15 01:52:30;;;;;;;13.07;6.45;;;;;;;;;;6282783;22;20169;-89
2021/06/15 01:55:36;;;;;;;15.93;7.22;;;;;;;;;;6282950;22;20240;-88
2021/06/15 01:58:44;;;;;;;14.23;7.10;;;;;;;;;;6283786;22;20165;-88
2021/06/15 02:01:54;;;;;;;13.05;6.78;;;;;;;;;;6281066;22;20178;-88
2021/06/15 02:05:01;;;;;;;12.90;6.55;;;;;;;;;;6282413;22;20161;-89
2021/06/15 02:08:07;;;;;;;15.43;7.05;;;;;;;;;;6282553;22;20296;-90
2021/06/15 02:11:17;;;;;;;15.07;6.90;;;;;;;;;;6282119;22;20169;-88
2021/06/15 02:14:39;;;;;;;12.48;6.82;;;;;;;;;;6284974;22;20189;-89
2021/06/15 02:17:55;;;;;;;18.05;6.63;;;;;;;;;;6282480;22;20166;-87
2021/06/15 02:21:21;;;;;;;14.10;6.28;;;;;;;;;;6285164;22;20288;-88
2021/06/15 02:24:28;;;;;;;15.50;6.93;;;;;;;;;;6282710;22;20166;-86
2021/06/15 02:27:33;;;;;;;14.65;6.60;;;;;;;;;;6283447;22;20185;-88
2021/06/15 02:30:39;;;;;;;15.95;6.72;;;;;;;;;;6283221;22;20216;-88
2021/06/15 02:33:49;;;;;;;11.80;6.60;;;;;;;;;;6282176;22;20667;-88
2021/06/15 02:36:58;;;;;;;15.45;7.57;;;;;;;;;;6283492;22;20174;-87
2021/06/15 02:40:05;;;;;;;18.67;6.80;;;;;;;;;;6283710;22;20896;-87
2021/06/15 02:43:19;;;;;;;13.18;6.75;;;;;;;;;;6282895;22;20667;-89
2021/06/15 02:46:26;;;;;;;12.50;7.30;;;;;;;;;;6282704;22;20252;-88
2021/06/15 02:49:35;;;;;;;13.80;6.93;;;;;;;;;;6283074;22;20165;-88
2021/06/15 02:52:44;;;;;;;16.17;7.20;;;;;;;;;;6282880;22;20288;-86
2021/06/15 02:55:55;;;;;;;16.88;7.22;;;;;;;;;;6283205;22;20198;-87
2021/06/15 02:59:03;;;;;;;13.20;7.13;;;;;;;;;;6282288;22;20170;-88
2021/06/15 03:02:09;;;;;;;17.42;7.43;;;;;;;;;;6284108;22;20513;-88
2021/06/15 03:05:23;;;;;;;14.55;7.32;;;;;;;;;;6286002;22;20166;-88
2021/06/15 03:08:31;;;;;;;15.88;7.68;;;;;;;;;;6285390;22;20181;-87
2021/06/15 03:11:39;;;;;;;19.10;7.80;;;;;;;;;;6284305;22;20721;-88
2021/06/15 03:14:45;;;;;;;13.10;7.43;;;;;;;;;;6285021;22;20223;-88
2021/06/15 03:17:53;;;;;;;14.63;7.35;;;;;;;;;;6284654;22;20218;-88
2021/06/15 03:21:01;;;;;;;15.07;7.40;;;;;;;;;;6284567;22;20174;-88
2021/06/15 03:24:08;;;;;;;15.73;7.53;;;;;;;;;;6284827;22;20284;-86
2021/06/15 03:27:17;;;;;;;12.77;6.93;;;;;;;;;;6285286;22;20170;-87
2021/06/15 03:30:25;;;;;;;14.13;7.35;;;;;;;;;;6285646;22;20166;-88
2021/06/15 03:33:30;;;;;;;12.70;6.85;;;;;;;;;;6284167;22;20833;-89
2021/06/15 03:36:39;;;;;;;11.93;6.75;;;;;;;;;;6285008;22;20162;-87
2021/06/15 03:39:46;;;;;;;15.02;7.15;;;;;;;;;;6283931;22;20184;-88
2021/06/15 03:42:52;;;;;;;13.63;6.82;;;;;;;;;;6283907;22;20246;-88
2021/06/15 03:45:58;;;;;;;17.92;6.97;;;;;;;;;;6285456;22;20589;-88
2021/06/15 03:49:04;;;;;;;13.88;7.00;;;;;;;;;;6285481;22;20216;-87
2021/06/15 03:52:10;;;;;;;14.85;7.15;;;;;;;;;;6284247;22;20235;-88
2021/06/15 03:55:16;;;;;;;13.30;7.22;;;;;;;;;;6284105;22;20610;-87
2021/06/15 03:58:21;;;;;;;15.48;6.90;;;;;;;;;;6284974;22;20216;-86
2021/06/15 04:01:28;;;;;;;14.85;7.05;;;;;;;;;;6283617;22;20624;-88
2021/06/15 04:04:35;;;;;;;17.65;7.10;;;;;;;;;;6283103;22;20193;-88
2021/06/15 04:07:43;;;;;;;16.42;6.50;;;;;;;;;;6284004;22;20173;-88
2021/06/15 04:10:48;;;;;;;17.15;6.68;;;;;;;;;;6283693;22;20169;-88
2021/06/15 04:13:53;;;;;;;15.02;5.97;;;;;;;;;;6282489;22;20181;-87
2021/06/15 04:17:01;;;;;;;12.80;6.32;;;;;;;;;;6283497;22;20187;-88
2021/06/15 04:20:07;;;;;;;12.85;6.22;;;;;;;;;;6282015;22;20181;-88
2021/06/15 04:23:18;;;;;;;11.70;6.38;;;;;;;;;;6283255;22;20220;-88
2021/06/15 04:26:23;;;;;;;19.75;6.57;;;;;;;;;;6283732;22;20166;-88
2021/06/15 04:29:31;;;;;;;12.73;6.50;;;;;;;;;;6283962;22;20209;-88
2021/06/15 04:32:45;;;;;;;14.23;7.28;;;;;;;;;;6283072;22;20242;-89
2021/06/15 04:35:53;;;;;;;10.45;6.53;;;;;;;;;;6284850;22;20193;-88
2021/06/15 04:39:00;;;;;;;11.90;6.25;;;;;;;;;;6283078;22;20173;-88
2021/06/15 04:42:06;;;;;;;21.15;7.00;;;;;;;;;;6282770;22;20228;-87
2021/06/15 04:45:12;;;;;;;12.43;6.65;;;;;;;;;;6284147;22;20181;-90
2021/06/15 04:48:22;;;;;;;13.50;6.57;;;;;;;;;;6284201;22;20173;-87
2021/06/15 04:51:28;;;;;;;12.48;6.63;;;;;;;;;;6281995;22;20237;-88
2021/06/15 04:54:36;;;;;;;13.15;6.82;;;;;;;;;;6283505;22;20221;-88
2021/06/15 04:57:42;;;;;;;12.00;6.57;;;;;;;;;;6284699;22;20248;-86
2021/06/15 05:00:49;;;;;;;13.27;6.78;;;;;;;;;;6283653;22;20173;-89
2021/06/15 05:03:54;;;;;;;14.85;5.80;;;;;;;;;;6283705;22;20174;-88
2021/06/15 05:06:59;;;;;;;18.45;7.05;;;;;;;;;;6284414;22;20170;-87
2021/06/15 05:10:06;;;;;;;11.20;6.30;;;;;;;;;;6285412;22;20170;-89
2021/06/15 05:13:12;;;;;;;10.48;6.05;;;;;;;;;;6285269;22;20174;-88
2021/06/15 05:16:18;;;;;;;15.02;6.45;;;;;;;;;;6287123;22;20205;-88
2021/06/15 05:19:24;;;;;;;18.70;5.70;;;;;;;;;;6286669;22;20173;-87
2021/06/15 05:22:30;;;;;;;11.13;5.43;;;;;;;;;;6286438;22;20165;-87
2021/06/15 05:25:36;;;;;;;10.95;5.65;;;;;;;;;;6293521;22;20169;-87
2021/06/15 05:28:41;;;;;;;15.55;5.22;;;;;;;;;;6285237;22;20170;-88
2021/06/15 05:31:46;;;;;;;15.25;5.68;;;;;;;;;;6286605;22;20173;-87
2021/06/15 05:34:52;;;;;;;11.45;5.45;;;;;;;;;;6287894;22;20204;-87
2021/06/15 05:37:58;;;;;;;10.00;5.57;;;;;;;;;;6288430;22;20173;-87
2021/06/15 05:41:18;;;;;;;10.82;5.47;;;;;;;;;;6289581;22;20169;-86
2021/06/15 05:44:32;;;;;;;12.70;5.15;;;;;;;;;;6287890;22;20174;-88
2021/06/15 05:47:36;;;;;;;9.98;5.25;;;;;;;;;;6288046;22;20560;-87
2021/06/15 05:50:42;;;;;;;10.52;5.53;;;;;;;;;;6287905;22;20239;-89
2021/06/15 05:53:47;;;;;;;10.23;5.25;;;;;;;;;;6285584;22;20173;-88
2021/06/15 05:56:53;;;;;;;9.95;5.10;;;;;;;;;;6286899;22;20193;-87
2021/06/15 05:59:59;;;;;;;11.07;4.97;;;;;;;;;;6287976;22;20170;-88
2021/06/15 06:03:04;;;;;;;11.65;5.22;;;;;;;;;;6286949;22;20230;-89
2021/06/15 06:09:33;;;;;;;13.20;5.13;;;;;;;;;;6286471;22;20185;-86
2021/06/15 06:12:39;;;;;;;15.57;5.63;;;;;;;;;;6282388;22;20154;-91
2021/06/15 06:15:45;;;;;;;15.57;5.40;;;;;;;;;;6285848;22;20208;-89
2021/06/15 06:18:52;;;;;;;8.95;4.63;;;;;;;;;;6286466;22;20172;-90
2021/06/15 06:21:57;;;;;;;8.73;5.10;;;;;;;;;;6285511;22;20170;-90
2021/06/15 06:25:05;;;;;;;12.32;5.88;;;;;;;;;;6288766;22;20193;-89
2021/06/15 06:28:11;;;;;;;10.80;5.20;;;;;;;;;;6286418;22;20170;-88
2021/06/15 06:31:17;;;;;;;14.82;5.43;;;;;;;;;;6288319;22;20169;-88
2021/06/15 06:34:23;;;;;;;10.90;4.97;;;;;;;;;;6287159;22;20192;-89
2021/06/15 06:37:28;;;;;;;11.55;4.35;;;;;;;;;;6289167;22;20212;-88
2021/06/15 06:40:33;;;;;;;11.77;4.40;;;;;;;;;;6290713;22;20170;-89
2021/06/15 06:43:39;;;;;;;13.95;4.95;;;;;;;;;;6286239;22;20216;-91
2021/06/15 06:46:44;;;;;;;15.55;4.57;;;;;;;;;;6284700;22;20213;-89
2021/06/15 06:49:49;;;;;;;11.00;4.55;;;;;;;;;;6286756;22;20668;-89
2021/06/15 06:52:54;;;;;;;11.85;4.70;;;;;;;;;;6284816;22;20192;-89
2021/06/15 06:55:59;;;;;;;13.85;4.47;;;;;;;;;;6283192;22;20271;-88
2021/06/15 06:59:06;;;;;;;11.15;4.43;;;;;;;;;;6286445;22;20212;-90
2021/06/15 07:02:10;;;;;;;10.23;4.30;;;;;;;;;;6284623;22;20170;-89
2021/06/15 07:05:16;;;;;;;9.77;4.35;;;;;;;;;;6288166;22;20161;-89
2021/06/15 07:08:21;;;;;;;11.52;4.47;;;;;;;;;;6288050;22;20621;-89
2021/06/15 07:11:26;;;;;;;12.45;4.28;;;;;;;;;;6286889;22;20166;-89
2021/06/15 07:14:32;;;;;;;8.55;3.53;;;;;;;;;;6286081;22;20566;-88
2021/06/15 07:17:37;;;;;;;6.93;4.07;;;;;;;;;;6285027;22;20494;-88
2021/06/15 07:20:42;;;;;;;11.05;4.13;;;;;;;;;;6285722;22;20170;-88
2021/06/15 07:23:47;;;;;;;9.38;4.05;;;;;;;;;;6285842;22;20189;-88
2021/06/15 07:26:51;;;;;;;10.65;4.15;;;;;;;;;;6288881;22;20161;-88
2021/06/15 07:29:58;;;;;;;10.38;4.20;;;;;;;;;;6288866;22;20182;-88
2021/06/15 07:33:05;;;;;;;8.55;3.88;;;;;;;;;;6292380;22;20173;-88
2021/06/15 07:36:18;;;;;;;9.00;3.65;;;;;;;;;;6298934;22;20193;-88
2021/06/15 07:39:30;;;;;;;8.48;3.88;;;;;;;;;;6297952;22;20154;-88
2021/06/15 07:42:35;;;;;;;11.10;4.25;;;;;;;;;;6288190;22;20169;-88
2021/06/15 07:45:42;;;;;;;6.10;3.58;;;;;;;;;;6289602;22;20165;-87
2021/06/15 07:53:10;;;;;;;7.72;3.15;;;;;;;;;;6289234;22;20218;-88
2021/06/15 07:56:15;;;;;;;12.13;4.03;;;;;;;;;;6291335;22;20224;-88
2021/06/15 07:59:20;;;;;;;9.90;3.35;;;;;;;;;;6291631;22;20193;-89
2021/06/15 08:02:29;;;;;;;10.40;4.00;;;;;;;;;;6293587;22;20242;-88
2021/06/15 08:05:35;;;;;;;10.57;3.33;;;;;;;;;;6293740;22;20222;-90
2021/06/15 08:08:40;;;;;;;11.95;3.72;;;;;;;;;;6290802;22;20600;-89
2021/06/15 08:11:45;;;;;;;9.50;3.60;;;;;;;;;;6286591;22;20284;-90
2021/06/15 08:14:50;;;;;;;8.65;3.65;;;;;;;;;;6286209;22;20173;-88
2021/06/15 08:17:57;;;;;;;7.97;3.42;;;;;;;;;;6286437;22;20166;-88
2021/06/15 08:21:01;;;;;;;15.00;3.50;;;;;;;;;;6288259;22;20170;-90
2021/06/15 08:24:12;;;;;;;9.38;3.50;;;;;;;;;;6293995;22;20165;-91
2021/06/15 08:27:17;;;;;;;6.43;3.42;;;;;;;;;;6289550;22;20170;-90
2021/06/15 08:30:23;;;;;;;9.20;3.70;;;;;;;;;;6286958;22;20231;-91
2021/06/15 08:33:29;;;;;;;12.02;3.90;;;;;;;;;;6286659;22;20173;-91
2021/06/15 08:36:35;;;;;;;10.52;3.05;;;;;;;;;;6286967;22;20227;-89
2021/06/15 08:39:42;;;;;;;8.15;2.97;;;;;;;;;;6286808;22;20165;-89
2021/06/15 08:42:48;;;;;;;8.77;3.00;;;;;;;;;;6286572;22;20244;-88
2021/06/15 08:45:53;;;;;;;6.70;3.25;;;;;;;;;;6287880;22;20192;-88
2021/06/15 08:49:00;;;;;;;12.68;2.92;;;;;;;;;;6286697;22;20173;-90
2021/06/15 08:52:07;;;;;;;4.43;2.08;;;;;;;;;;6287311;22;20169;-91
2021/06/15 08:55:13;;;;;;;9.68;3.08;;;;;;;;;;6288365;22;20208;-91
2021/06/15 22:02:58;;;;;;;8.68;4.82;;;;;;;;;;6306507;22;20282;-87
2021/06/15 22:06:04;;;;;;;13.32;4.70;;;;;;;;;;6312129;22;20269;-88
2021/06/15 22:09:09;;;;;;;12.88;5.38;;;;;;;;;;6310723;22;20595;-86
2021/06/15 22:12:14;;;;;;;10.63;4.68;;;;;;;;;;6311324;22;20169;-88
2021/06/15 22:15:19;;;;;;;12.57;5.47;;;;;;;;;;6311767;22;20620;-88
2021/06/15 22:18:24;;;;;;;8.55;4.72;;;;;;;;;;6311234;22;20212;-86
2021/06/15 22:21:30;;;;;;;10.18;5.28;;;;;;;;;;6311764;22;20241;-88
2021/06/15 22:24:35;;;;;;;9.90;5.18;;;;;;;;;;6317494;22;20248;-86
2021/06/15 22:27:41;;;;;;;8.75;5.45;;;;;;;;;;6317648;22;20279;-91
2021/06/15 22:30:45;;;;;;;21.48;11.68;;;;;;;;;;6317323;22;20153;-90
2021/06/15 22:33:50;;;;;;;46.47;23.60;;;;;;;;;;6317058;22;20172;-88
2021/06/15 22:36:56;;;;;;;10.13;5.72;;;;;;;;;;6316397;22;20192;-88
2021/06/15 22:40:02;;;;;;;9.45;4.70;;;;;;;;;;6318890;22;20623;-87
2021/06/15 22:43:07;;;;;;;10.85;4.82;;;;;;;;;;6317085;22;20165;-88
2021/06/15 22:46:12;;;;;;;11.32;5.65;;;;;;;;;;6318043;22;20281;-89
2021/06/15 22:49:17;;;;;;;13.32;5.38;;;;;;;;;;6316066;22;20203;-87
2021/06/15 22:52:24;;;;;;;11.60;6.00;;;;;;;;;;6314530;22;20210;-87
2021/06/15 22:55:31;;;;;;;10.90;6.15;;;;;;;;;;6315609;22;20173;-89
2021/06/15 22:58:36;;;;;;;13.60;5.70;;;;;;;;;;6315195;22;20619;-88
2021/06/15 23:01:41;;;;;;;10.10;5.05;;;;;;;;;;6313126;22;20192;-87
2021/06/15 23:04:46;;;;;;;11.80;5.18;;;;;;;;;;6312941;22;20228;-88
2021/06/15 23:07:53;;;;;;;11.77;5.97;;;;;;;;;;6313553;22;20169;-88
2021/06/15 23:11:03;;;;;;;14.75;6.45;;;;;;;;;;6314334;22;20153;-88
2021/06/15 23:14:09;;;;;;;14.63;5.00;;;;;;;;;;6316439;22;20291;-87
2021/06/15 23:17:14;;;;;;;16.95;5.30;;;;;;;;;;6322565;22;20262;-88
2021/06/15 23:20:20;;;;;;;12.60;5.20;;;;;;;;;;6318517;22;20507;-88
2021/06/15 23:23:30;;;;;;;9.15;5.43;;;;;;;;;;6316201;22;20173;-87
2021/06/15 23:26:35;;;;;;;11.52;5.30;;;;;;;;;;6317177;22;20512;-88
2021/06/15 23:29:40;;;;;;;13.13;5.50;;;;;;;;;;6317040;22;20177;-87
2021/06/15 23:32:46;;;;;;;13.18;5.97;;;;;;;;;;6317167;22;20245;-87
2021/06/15 23:35:51;;;;;;;10.52;5.72;;;;;;;;;;6316778;22;20616;-88
2021/06/15 23:38:57;;;;;;;15.27;5.32;;;;;;;;;;6315769;22;20165;-88
2021/06/15 23:42:02;;;;;;;8.57;4.95;;;;;;;;;;6317146;22;20177;-87
2021/06/15 23:45:09;;;;;;;9.10;5.18;;;;;;;;;;6316198;22;20165;-86
2021/06/15 23:48:13;;;;;;;10.10;5.57;;;;;;;;;;6316044;22;20207;-87
2021/06/15 23:51:20;;;;;;;11.00;5.70;;;;;;;;;;6316502;22;20219;-88
2021/06/15 23:54:27;;;;;;;13.00;5.85;;;;;;;;;;6317991;22;20194;-86
2021/06/15 23:57:32;;;;;;;11.93;5.78;;;;;;;;;;6315818;22;20239;-86
